sensor_id;sensor_type;location;lat;lon;timestamp;pressure;altitude;pressure_sealevel;temperature;humidity
33189;BME280;52601;53.070;10.600;2022-10-20T04:42:51;101864.31;;;4.90;100.00
33189;BME280;52601;53.070;10.600;2022-10-20T04:46:23;101869.56;;;4.87;100.00
33189;BME280;52601;53.070;10.600;2022-10-20T04:49:52;101923.84;;;5.31;100.00
33189;BME280;52601;53.070;10.600;2022-10-20T05:52:45;101853.44;;;5.55;100.00
33189;BME280;52601;53.070;10.600;2022-10-20T06:00:37;101850.03;;;5.44;100.00
33189;BME280;52601;53.070;10.600;2022-10-20T06:04:34;101901.81;;;5.71;100.00
33189;BME280;52601;53.070;10.600;2022-10-20T06:30:24;101884.78;;;6.26;100.00
33189;BME280;52601;53.070;10.600;2022-10-20T06:33:53;101836.22;;;6.24;100.00
33189;BME280;52601;53.070;10.600;2022-10-20T06:36:39;101849.09;;;6.34;100.00
33189;BME280;52601;53.070;10.600;2022-10-20T06:39:26;101823.97;;;6.29;100.00
33189;BME280;52601;53.070;10.600;2022-10-20T06:42:11;101798.69;;;6.38;100.00
33189;BME280;52601;53.070;10.600;2022-10-20T06:44:57;101821.00;;;6.57;100.00
33189;BME280;52601;53.070;10.600;2022-10-20T06:47:43;101845.91;;;6.76;100.00
33189;BME280;52601;53.070;10.600;2022-10-20T06:50:29;101832.66;;;6.91;100.00
33189;BME280;52601;53.070;10.600;2022-10-20T06:53:15;101785.72;;;6.91;100.00
33189;BME280;52601;53.070;10.600;2022-10-20T06:56:06;101862.88;;;7.56;100.00
33189;BME280;52601;53.070;10.600;2022-10-20T06:58:54;101839.41;;;7.56;100.00
33189;BME280;52601;53.070;10.600;2022-10-20T07:01:40;101830.44;;;7.71;100.00
33189;BME280;52601;53.070;10.600;2022-10-20T07:04:26;101819.13;;;8.15;100.00
33189;BME280;52601;53.070;10.600;2022-10-20T07:07:12;101809.47;;;8.18;100.00
33189;BME280;52601;53.070;10.600;2022-10-20T07:09:57;101794.41;;;8.32;100.00
33189;BME280;52601;53.070;10.600;2022-10-20T07:12:43;101857.13;;;9.10;100.00
33189;BME280;52601;53.070;10.600;2022-10-20T07:15:28;101820.88;;;9.30;100.00
33189;BME280;52601;53.070;10.600;2022-10-20T07:18:14;101801.03;;;9.86;100.00
33189;BME280;52601;53.070;10.600;2022-10-20T07:21:02;101821.31;;;10.41;97.33
33189;BME280;52601;53.070;10.600;2022-10-20T07:23:49;101824.53;;;10.78;94.00
33189;BME280;52601;53.070;10.600;2022-10-20T07:26:37;101802.97;;;11.22;89.91
33189;BME280;52601;53.070;10.600;2022-10-20T07:29:23;101793.72;;;11.37;88.84
33189;BME280;52601;53.070;10.600;2022-10-20T07:32:09;101815.78;;;11.82;87.83
33189;BME280;52601;53.070;10.600;2022-10-20T07:34:54;101781.72;;;11.79;87.26
33189;BME280;52601;53.070;10.600;2022-10-20T07:37:40;101778.22;;;12.03;85.75
33189;BME280;52601;53.070;10.600;2022-10-20T07:40:25;101802.06;;;11.99;84.99
33189;BME280;52601;53.070;10.600;2022-10-20T07:43:11;101814.38;;;12.88;83.08
33189;BME280;52601;53.070;10.600;2022-10-20T07:45:56;101768.84;;;12.86;79.85
33189;BME280;52601;53.070;10.600;2022-10-20T07:48:42;101777.88;;;12.57;81.04
33189;BME280;52601;53.070;10.600;2022-10-20T07:51:29;101773.75;;;12.29;81.91
33189;BME280;52601;53.070;10.600;2022-10-20T07:54:15;101773.06;;;12.24;82.83
33189;BME280;52601;53.070;10.600;2022-10-20T07:57:01;101743.03;;;12.52;82.16
33189;BME280;52601;53.070;10.600;2022-10-20T07:59:46;101751.47;;;12.82;79.51
33189;BME280;52601;53.070;10.600;2022-10-20T08:02:32;101756.81;;;13.00;78.77
33189;BME280;52601;53.070;10.600;2022-10-20T08:05:17;101774.03;;;12.44;80.47
33189;BME280;52601;53.070;10.600;2022-10-20T08:08:03;101747.06;;;12.82;79.76
33189;BME280;52601;53.070;10.600;2022-10-20T08:10:49;101753.44;;;12.97;78.26
33189;BME280;52601;53.070;10.600;2022-10-20T08:13:35;101738.88;;;13.70;75.85
33189;BME280;52601;53.070;10.600;2022-10-20T08:16:21;101694.41;;;13.24;76.21
33189;BME280;52601;53.070;10.600;2022-10-20T08:19:15;101748.34;;;14.69;72.44
33189;BME280;52601;53.070;10.600;2022-10-20T08:22:09;101754.53;;;15.55;69.67
33189;BME280;52601;53.070;10.600;2022-10-20T08:24:55;101688.34;;;15.39;67.04
33189;BME280;52601;53.070;10.600;2022-10-20T08:27:40;101701.63;;;15.72;65.72
33189;BME280;52601;53.070;10.600;2022-10-20T08:30:26;101685.03;;;14.67;67.13
33189;BME280;52601;53.070;10.600;2022-10-20T08:33:12;101668.75;;;14.22;70.66
33189;BME280;52601;53.070;10.600;2022-10-20T08:36:02;101691.53;;;14.43;70.96
33189;BME280;52601;53.070;10.600;2022-10-20T08:38:48;101696.94;;;14.93;70.25
33189;BME280;52601;53.070;10.600;2022-10-20T08:41:38;101677.91;;;14.87;70.20
33189;BME280;52601;53.070;10.600;2022-10-20T08:44:45;101692.25;;;15.32;67.18
33189;BME280;52601;53.070;10.600;2022-10-20T08:47:35;101668.28;;;15.03;68.41
33189;BME280;52601;53.070;10.600;2022-10-20T08:50:23;101640.25;;;15.50;66.40
33189;BME280;52601;53.070;10.600;2022-10-20T08:53:11;101691.78;;;16.54;64.27
33189;BME280;52601;53.070;10.600;2022-10-20T08:55:57;101643.88;;;15.96;63.27
33189;BME280;52601;53.070;10.600;2022-10-20T08:58:44;101652.59;;;15.82;63.35
33189;BME280;52601;53.070;10.600;2022-10-20T09:01:34;101657.50;;;15.40;65.15
33189;BME280;52601;53.070;10.600;2022-10-20T09:04:33;101620.66;;;15.37;64.75
33189;BME280;52601;53.070;10.600;2022-10-20T09:07:33;101676.06;;;16.19;64.16
33189;BME280;52601;53.070;10.600;2022-10-20T09:10:29;101666.84;;;16.58;64.06
33189;BME280;52601;53.070;10.600;2022-10-20T09:16:17;101633.84;;;16.48;62.18
33189;BME280;52601;53.070;10.600;2022-10-20T09:19:26;101608.25;;;17.50;59.20
33189;BME280;52601;53.070;10.600;2022-10-20T09:22:12;101611.19;;;18.92;56.49
33189;BME280;52601;53.070;10.600;2022-10-20T09:24:59;101644.25;;;18.88;55.35
33189;BME280;52601;53.070;10.600;2022-10-20T09:27:44;101634.25;;;19.80;53.95
33189;BME280;52601;53.070;10.600;2022-10-20T09:30:32;101635.13;;;19.55;53.97
33189;BME280;52601;53.070;10.600;2022-10-20T09:33:32;101625.63;;;19.76;54.17
33189;BME280;52601;53.070;10.600;2022-10-20T09:36:19;101635.22;;;20.97;52.19
33189;BME280;52601;53.070;10.600;2022-10-20T09:39:23;101651.50;;;20.47;52.09
33189;BME280;52601;53.070;10.600;2022-10-20T09:42:14;101623.09;;;20.93;51.55
33189;BME280;52601;53.070;10.600;2022-10-20T09:45:04;101615.03;;;20.00;51.95
33189;BME280;52601;53.070;10.600;2022-10-20T09:47:54;101587.69;;;20.22;51.80
33189;BME280;52601;53.070;10.600;2022-10-20T09:50:45;101585.56;;;21.85;48.22
33189;BME280;52601;53.070;10.600;2022-10-20T09:53:35;101585.69;;;21.83;48.40
33189;BME280;52601;53.070;10.600;2022-10-20T10:02:28;101658.72;;;20.57;50.68
33189;BME280;52601;53.070;10.600;2022-10-20T11:10:33;101530.88;;;23.44;42.78
33189;BME280;52601;53.070;10.600;2022-10-20T12:14:29;101390.06;;;23.51;42.72
33189;BME280;52601;53.070;10.600;2022-10-20T12:25:45;101302.63;;;20.00;48.52
33189;BME280;52601;53.070;10.600;2022-10-20T14:00:24;101287.72;;;22.51;45.93
33189;BME280;52601;53.070;10.600;2022-10-20T14:04:18;101240.78;;;21.97;46.30
33189;BME280;52601;53.070;10.600;2022-10-20T14:27:47;101249.66;;;18.07;56.32
33189;BME280;52601;53.070;10.600;2022-10-20T14:31:00;101280.44;;;16.67;61.39
33189;BME280;52601;53.070;10.600;2022-10-20T14:34:22;101215.78;;;15.60;64.20
33189;BME280;52601;53.070;10.600;2022-10-20T14:37:34;101205.38;;;15.43;65.43
33189;BME280;52601;53.070;10.600;2022-10-20T14:40:33;101197.03;;;15.35;66.29
33189;BME280;52601;53.070;10.600;2022-10-20T14:43:26;101228.66;;;15.36;66.63
33189;BME280;52601;53.070;10.600;2022-10-20T14:46:44;101219.03;;;15.06;67.62
33189;BME280;52601;53.070;10.600;2022-10-20T14:49:39;101236.78;;;14.88;69.08
33189;BME280;52601;53.070;10.600;2022-10-20T14:56:23;101190.88;;;14.30;71.13
33189;BME280;52601;53.070;10.600;2022-10-20T14:59:33;101228.22;;;14.38;72.30
33189;BME280;52601;53.070;10.600;2022-10-20T15:02:57;101257.53;;;14.33;73.49
33189;BME280;52601;53.070;10.600;2022-10-20T15:06:09;101204.63;;;14.04;74.98
33189;BME280;52601;53.070;10.600;2022-10-20T15:09:26;101178.56;;;13.82;75.15
33189;BME280;52601;53.070;10.600;2022-10-20T15:12:48;101203.75;;;13.88;76.00
33189;BME280;52601;53.070;10.600;2022-10-20T15:15:52;101160.81;;;13.53;76.83
33189;BME280;52601;53.070;10.600;2022-10-20T15:18:43;101232.13;;;13.82;77.43
33189;BME280;52601;53.070;10.600;2022-10-20T15:21:42;101165.91;;;13.23;78.53
33189;BME280;52601;53.070;10.600;2022-10-20T15:24:48;101179.09;;;13.06;80.42
33189;BME280;52601;53.070;10.600;2022-10-20T15:27:47;101176.31;;;13.09;80.78
33189;BME280;52601;53.070;10.600;2022-10-20T15:30:34;101138.34;;;12.96;81.11
33189;BME280;52601;53.070;10.600;2022-10-20T15:33:28;101182.03;;;13.00;81.77
33189;BME280;52601;53.070;10.600;2022-10-20T15:36:25;101160.25;;;12.96;82.00
33189;BME280;52601;53.070;10.600;2022-10-20T15:39:18;101165.44;;;12.98;82.08
33189;BME280;52601;53.070;10.600;2022-10-20T15:42:05;101155.75;;;12.81;82.03
33189;BME280;52601;53.070;10.600;2022-10-20T15:48:07;101140.50;;;12.71;82.96
33189;BME280;52601;53.070;10.600;2022-10-20T15:51:25;101105.91;;;12.44;84.13
33189;BME280;52601;53.070;10.600;2022-10-20T15:54:23;101131.19;;;12.47;85.07
33189;BME280;52601;53.070;10.600;2022-10-20T15:57:09;101119.44;;;12.37;85.72
33189;BME280;52601;53.070;10.600;2022-10-20T16:00:09;101081.03;;;12.16;86.52
33189;BME280;52601;53.070;10.600;2022-10-20T16:02:59;101125.00;;;12.31;86.06
33189;BME280;52601;53.070;10.600;2022-10-20T16:05:53;101135.28;;;12.35;85.69
33189;BME280;52601;53.070;10.600;2022-10-20T16:08:41;101117.63;;;12.37;85.30
33189;BME280;52601;53.070;10.600;2022-10-20T16:11:36;101184.53;;;12.67;85.78
33189;BME280;52601;53.070;10.600;2022-10-20T16:14:26;101200.41;;;12.66;86.17
33189;BME280;52601;53.070;10.600;2022-10-20T16:17:12;101228.19;;;12.71;86.46
33189;BME280;52601;53.070;10.600;2022-10-20T16:19:58;101218.59;;;12.70;86.86
33189;BME280;52601;53.070;10.600;2022-10-20T16:22:43;101173.69;;;12.21;87.25
33189;BME280;52601;53.070;10.600;2022-10-20T16:25:29;101189.28;;;12.42;87.53
33189;BME280;52601;53.070;10.600;2022-10-20T16:28:14;101158.22;;;12.15;87.90
33189;BME280;52601;53.070;10.600;2022-10-20T16:31:05;101127.88;;;12.07;87.86
33189;BME280;52601;53.070;10.600;2022-10-20T16:33:51;101175.28;;;12.42;87.77
33189;BME280;52601;53.070;10.600;2022-10-20T16:36:36;101198.78;;;12.63;88.13
33189;BME280;52601;53.070;10.600;2022-10-20T16:39:22;101089.09;;;11.94;89.09
33189;BME280;52601;53.070;10.600;2022-10-20T16:42:08;101082.66;;;12.01;88.91
33189;BME280;52601;53.070;10.600;2022-10-20T16:44:53;101132.03;;;12.30;88.27
33189;BME280;52601;53.070;10.600;2022-10-20T16:47:39;101114.00;;;12.23;87.40
33189;BME280;52601;53.070;10.600;2022-10-20T16:50:25;101148.78;;;12.28;88.33
33189;BME280;52601;53.070;10.600;2022-10-20T16:53:10;101190.41;;;12.55;88.98
33189;BME280;52601;53.070;10.600;2022-10-20T16:55:56;101135.13;;;12.38;88.46
33189;BME280;52601;53.070;10.600;2022-10-20T16:58:41;101143.72;;;12.42;88.04
33189;BME280;52601;53.070;10.600;2022-10-20T17:01:27;101190.09;;;12.61;88.31
33189;BME280;52601;53.070;10.600;2022-10-20T17:04:13;101150.56;;;12.63;88.18
33189;BME280;52601;53.070;10.600;2022-10-20T17:06:58;101095.06;;;12.33;87.66
33189;BME280;52601;53.070;10.600;2022-10-20T17:09:44;101070.97;;;12.06;88.68
33189;BME280;52601;53.070;10.600;2022-10-20T17:12:30;101163.22;;;12.55;88.58
33189;BME280;52601;53.070;10.600;2022-10-20T17:15:15;101124.44;;;12.41;87.88
33189;BME280;52601;53.070;10.600;2022-10-20T17:18:01;101087.22;;;12.15;87.92
33189;BME280;52601;53.070;10.600;2022-10-20T17:20:51;101069.81;;;12.29;87.38
33189;BME280;52601;53.070;10.600;2022-10-20T17:23:38;101120.34;;;12.36;87.72
33189;BME280;52601;53.070;10.600;2022-10-20T17:26:28;101110.22;;;12.45;87.33
33189;BME280;52601;53.070;10.600;2022-10-20T17:29:16;101068.97;;;12.11;87.40
33189;BME280;52601;53.070;10.600;2022-10-20T17:32:07;101082.44;;;12.23;87.11
33189;BME280;52601;53.070;10.600;2022-10-20T17:34:56;101090.66;;;12.34;86.66
33189;BME280;52601;53.070;10.600;2022-10-20T17:37:42;101064.53;;;12.31;86.06
33189;BME280;52601;53.070;10.600;2022-10-20T17:40:27;101088.78;;;12.36;86.42
33189;BME280;52601;53.070;10.600;2022-10-20T17:43:13;101076.53;;;12.18;87.02
33189;BME280;52601;53.070;10.600;2022-10-20T17:46:01;101098.31;;;12.38;86.83
33189;BME280;52601;53.070;10.600;2022-10-20T17:48:48;101090.09;;;12.27;87.09
33189;BME280;52601;53.070;10.600;2022-10-20T17:51:33;101088.03;;;12.34;87.12
33189;BME280;52601;53.070;10.600;2022-10-20T17:54:19;101136.91;;;12.55;87.15
33189;BME280;52601;53.070;10.600;2022-10-20T17:57:06;101079.53;;;12.46;86.81
33189;BME280;52601;53.070;10.600;2022-10-20T17:59:52;101045.47;;;12.26;86.01
33189;BME280;52601;53.070;10.600;2022-10-20T18:02:49;101067.63;;;12.56;85.32
33189;BME280;52601;53.070;10.600;2022-10-20T18:05:35;101046.47;;;12.23;86.83
33189;BME280;52601;53.070;10.600;2022-10-20T18:08:21;101046.31;;;12.43;86.03
33189;BME280;52601;53.070;10.600;2022-10-20T18:11:10;101039.59;;;12.38;86.16
33189;BME280;52601;53.070;10.600;2022-10-20T18:13:57;101097.63;;;12.69;86.20
33189;BME280;52601;53.070;10.600;2022-10-20T18:16:44;101061.34;;;12.41;86.48
33189;BME280;52601;53.070;10.600;2022-10-20T18:19:30;101085.72;;;12.62;86.05
33189;BME280;52601;53.070;10.600;2022-10-20T18:22:15;101046.19;;;12.46;86.15
33189;BME280;52601;53.070;10.600;2022-10-20T18:25:01;101051.38;;;12.48;86.11
33189;BME280;52601;53.070;10.600;2022-10-20T18:27:46;101033.19;;;12.43;85.15
33189;BME280;52601;53.070;10.600;2022-10-20T18:30:36;101009.13;;;12.17;85.74
33189;BME280;52601;53.070;10.600;2022-10-20T18:33:21;101042.69;;;12.46;85.38
33189;BME280;52601;53.070;10.600;2022-10-20T18:36:09;101064.06;;;12.74;85.33
33189;BME280;52601;53.070;10.600;2022-10-20T18:38:55;101027.91;;;12.43;85.12
33189;BME280;52601;53.070;10.600;2022-10-20T18:41:42;101068.06;;;12.81;85.21
33189;BME280;52601;53.070;10.600;2022-10-20T18:44:28;101014.00;;;12.41;84.53
33189;BME280;52601;53.070;10.600;2022-10-20T18:47:19;101018.03;;;12.48;85.17
33189;BME280;52601;53.070;10.600;2022-10-20T18:50:05;101059.25;;;12.65;85.19
33189;BME280;52601;53.070;10.600;2022-10-20T18:52:50;101028.16;;;12.56;85.22
33189;BME280;52601;53.070;10.600;2022-10-20T18:55:36;101003.41;;;12.43;85.16
33189;BME280;52601;53.070;10.600;2022-10-20T18:58:22;100985.00;;;12.26;84.59
33189;BME280;52601;53.070;10.600;2022-10-20T19:01:12;100995.22;;;12.32;85.32
33189;BME280;52601;53.070;10.600;2022-10-20T19:03:59;101049.25;;;12.71;84.97
33189;BME280;52601;53.070;10.600;2022-10-20T19:06:46;100978.81;;;12.27;85.09
33189;BME280;52601;53.070;10.600;2022-10-20T19:09:32;100988.72;;;12.22;85.11
33189;BME280;52601;53.070;10.600;2022-10-20T19:12:17;100991.88;;;12.28;85.13
33189;BME280;52601;53.070;10.600;2022-10-20T19:15:03;100967.59;;;12.23;85.65
33189;BME280;52601;53.070;10.600;2022-10-20T19:17:49;100998.84;;;12.29;85.99
33189;BME280;52601;53.070;10.600;2022-10-20T19:20:34;100990.50;;;12.38;85.67
33189;BME280;52601;53.070;10.600;2022-10-20T19:23:20;100975.81;;;12.34;85.54
33189;BME280;52601;53.070;10.600;2022-10-20T19:26:15;100951.03;;;12.21;84.94
33189;BME280;52601;53.070;10.600;2022-10-20T19:29:07;100966.97;;;12.35;84.54
33189;BME280;52601;53.070;10.600;2022-10-20T19:31:55;100949.41;;;12.36;84.76
33189;BME280;52601;53.070;10.600;2022-10-20T19:34:43;101028.97;;;12.73;84.58
33189;BME280;52601;53.070;10.600;2022-10-20T19:37:29;100936.00;;;12.25;84.19
33189;BME280;52601;53.070;10.600;2022-10-20T19:40:15;100939.22;;;12.30;85.11
33189;BME280;52601;53.070;10.600;2022-10-20T19:43:00;100981.97;;;12.50;87.57
33189;BME280;52601;53.070;10.600;2022-10-20T19:45:46;100920.50;;;12.01;90.05
33189;BME280;52601;53.070;10.600;2022-10-20T19:48:34;100930.81;;;12.06;91.86
33189;BME280;52601;53.070;10.600;2022-10-20T19:51:20;100945.63;;;11.90;93.90
33189;BME280;52601;53.070;10.600;2022-10-20T19:54:06;100984.22;;;12.06;95.27
33189;BME280;52601;53.070;10.600;2022-10-20T19:56:53;100964.41;;;11.82;96.92
33189;BME280;52601;53.070;10.600;2022-10-20T19:59:38;100919.94;;;11.61;98.31
33189;BME280;52601;53.070;10.600;2022-10-20T20:02:24;100994.44;;;12.13;100.00
33189;BME280;52601;53.070;10.600;2022-10-20T20:05:10;100912.44;;;11.53;100.00
33189;BME280;52601;53.070;10.600;2022-10-20T20:07:55;100927.03;;;11.59;100.00
33189;BME280;52601;53.070;10.600;2022-10-20T20:10:49;100942.03;;;11.57;100.00
33189;BME280;52601;53.070;10.600;2022-10-20T20:13:35;100927.63;;;11.47;100.00
33189;BME280;52601;53.070;10.600;2022-10-20T20:16:21;100955.84;;;11.60;100.00
33189;BME280;52601;53.070;10.600;2022-10-20T20:19:07;100976.88;;;11.79;100.00
33189;BME280;52601;53.070;10.600;2022-10-20T20:21:52;100899.41;;;11.33;100.00
33189;BME280;52601;53.070;10.600;2022-10-20T20:24:39;100928.47;;;11.66;100.00
33189;BME280;52601;53.070;10.600;2022-10-20T20:27:25;100911.66;;;11.51;100.00
33189;BME280;52601;53.070;10.600;2022-10-20T20:30:10;100963.31;;;11.69;100.00
33189;BME280;52601;53.070;10.600;2022-10-20T20:32:56;100870.84;;;11.27;100.00
33189;BME280;52601;53.070;10.600;2022-10-20T20:35:42;100891.59;;;11.32;100.00
33189;BME280;52601;53.070;10.600;2022-10-20T20:38:29;100943.38;;;11.47;100.00
33189;BME280;52601;53.070;10.600;2022-10-20T20:41:16;100917.72;;;11.35;100.00
33189;BME280;52601;53.070;10.600;2022-10-20T20:44:02;100982.63;;;11.50;100.00
33189;BME280;52601;53.070;10.600;2022-10-20T20:46:52;101007.91;;;11.71;100.00
33189;BME280;52601;53.070;10.600;2022-10-20T20:49:38;100943.78;;;11.20;100.00
33189;BME280;52601;53.070;10.600;2022-10-20T20:52:24;100973.84;;;11.32;100.00
33189;BME280;52601;53.070;10.600;2022-10-20T20:55:10;100964.00;;;11.37;100.00
33189;BME280;52601;53.070;10.600;2022-10-20T20:57:55;100918.97;;;11.09;100.00
33189;BME280;52601;53.070;10.600;2022-10-20T21:00:41;100918.59;;;10.98;100.00
33189;BME280;52601;53.070;10.600;2022-10-20T21:03:27;100940.97;;;11.23;100.00
33189;BME280;52601;53.070;10.600;2022-10-20T21:06:15;100942.22;;;11.35;100.00
33189;BME280;52601;53.070;10.600;2022-10-20T21:09:06;100921.13;;;11.18;100.00
33189;BME280;52601;53.070;10.600;2022-10-20T21:11:55;100934.91;;;11.04;100.00
33189;BME280;52601;53.070;10.600;2022-10-20T21:14:41;100886.69;;;10.88;100.00
33189;BME280;52601;53.070;10.600;2022-10-20T21:17:26;100917.03;;;10.94;100.00
33189;BME280;52601;53.070;10.600;2022-10-20T21:20:12;100886.56;;;10.91;100.00
33189;BME280;52601;53.070;10.600;2022-10-20T21:22:57;100928.38;;;10.94;100.00
33189;BME280;52601;53.070;10.600;2022-10-20T21:25:48;100954.06;;;11.06;100.00
33189;BME280;52601;53.070;10.600;2022-10-20T21:28:34;100927.25;;;11.00;100.00
33189;BME280;52601;53.070;10.600;2022-10-20T21:31:24;100908.09;;;10.98;100.00
33189;BME280;52601;53.070;10.600;2022-10-20T21:34:10;100896.59;;;10.82;100.00
33189;BME280;52601;53.070;10.600;2022-10-20T21:36:56;100918.25;;;11.05;100.00
33189;BME280;52601;53.070;10.600;2022-10-20T21:39:42;100886.56;;;10.91;100.00
33189;BME280;52601;53.070;10.600;2022-10-20T21:42:27;100853.81;;;10.81;100.00
33189;BME280;52601;53.070;10.600;2022-10-20T21:45:13;100911.28;;;11.04;100.00
33189;BME280;52601;53.070;10.600;2022-10-20T21:48:04;100883.38;;;10.85;100.00
33189;BME280;52601;53.070;10.600;2022-10-20T21:50:49;100894.94;;;10.99;100.00
33189;BME280;52601;53.070;10.600;2022-10-20T21:53:35;100946.44;;;11.38;100.00
33189;BME280;52601;53.070;10.600;2022-10-20T21:56:21;100887.09;;;10.98;100.00
33189;BME280;52601;53.070;10.600;2022-10-20T21:59:13;100879.69;;;10.89;100.00
33189;BME280;52601;53.070;10.600;2022-10-20T22:02:00;100848.69;;;10.78;100.00
33189;BME280;52601;53.070;10.600;2022-10-20T22:04:46;100872.31;;;10.97;100.00
33189;BME280;52601;53.070;10.600;2022-10-20T22:07:32;100879.59;;;10.90;100.00
33189;BME280;52601;53.070;10.600;2022-10-20T22:10:17;100907.72;;;11.24;100.00
33189;BME280;52601;53.070;10.600;2022-10-20T22:13:03;100842.53;;;10.61;100.00
33189;BME280;52601;53.070;10.600;2022-10-20T22:15:49;100841.38;;;10.66;100.00
33189;BME280;52601;53.070;10.600;2022-10-20T22:18:35;100884.28;;;11.02;100.00
33189;BME280;52601;53.070;10.600;2022-10-20T22:21:21;100863.03;;;10.71;100.00
33189;BME280;52601;53.070;10.600;2022-10-20T22:24:09;100873.28;;;10.94;100.00
33189;BME280;52601;53.070;10.600;2022-10-20T22:26:55;100829.41;;;10.61;100.00
33189;BME280;52601;53.070;10.600;2022-10-20T22:29:41;100822.63;;;10.57;100.00
33189;BME280;52601;53.070;10.600;2022-10-20T22:32:26;100813.28;;;10.70;100.00
33189;BME280;52601;53.070;10.600;2022-10-20T22:35:12;100817.38;;;10.75;100.00
33189;BME280;52601;53.070;10.600;2022-10-20T22:37:58;100873.06;;;10.99;100.00
33189;BME280;52601;53.070;10.600;2022-10-20T22:40:43;100864.56;;;10.94;100.00
33189;BME280;52601;53.070;10.600;2022-10-20T22:43:29;100827.22;;;10.70;100.00
33189;BME280;52601;53.070;10.600;2022-10-20T22:46:17;100923.25;;;11.28;100.00
33189;BME280;52601;53.070;10.600;2022-10-20T22:49:06;100826.38;;;10.70;100.00
33189;BME280;52601;53.070;10.600;2022-10-20T22:51:51;100876.28;;;10.87;100.00
33189;BME280;52601;53.070;10.600;2022-10-20T22:54:37;100833.69;;;10.63;100.00
33189;BME280;52601;53.070;10.600;2022-10-20T22:57:23;100875.34;;;10.88;100.00
33189;BME280;52601;53.070;10.600;2022-10-20T23:00:11;100902.31;;;10.91;100.00
33189;BME280;52601;53.070;10.600;2022-10-20T23:02:58;100842.59;;;10.78;100.00
33189;BME280;52601;53.070;10.600;2022-10-20T23:05:43;100940.94;;;11.25;100.00
33189;BME280;52601;53.070;10.600;2022-10-20T23:08:29;100856.19;;;10.49;100.00
33189;BME280;52601;53.070;10.600;2022-10-20T23:11:17;100850.75;;;10.53;100.00
33189;BME280;52601;53.070;10.600;2022-10-20T23:14:03;100938.38;;;11.05;100.00
33189;BME280;52601;53.070;10.600;2022-10-20T23:16:48;100849.13;;;10.69;100.00
33189;BME280;52601;53.070;10.600;2022-10-20T23:19:34;100869.19;;;10.70;100.00
33189;BME280;52601;53.070;10.600;2022-10-20T23:22:22;100899.31;;;10.80;100.00
33189;BME280;52601;53.070;10.600;2022-10-20T23:25:08;100900.50;;;10.92;100.00
33189;BME280;52601;53.070;10.600;2022-10-20T23:27:54;100886.56;;;10.73;100.00
33189;BME280;52601;53.070;10.600;2022-10-20T23:30:40;100865.78;;;10.68;100.00
33189;BME280;52601;53.070;10.600;2022-10-20T23:33:26;100851.63;;;10.54;100.00
33189;BME280;52601;53.070;10.600;2022-10-20T23:36:12;100941.38;;;10.97;100.00
33189;BME280;52601;53.070;10.600;2022-10-20T23:39:01;100922.34;;;10.92;100.00
33189;BME280;52601;53.070;10.600;2022-10-20T23:41:46;100895.91;;;10.78;100.00
33189;BME280;52601;53.070;10.600;2022-10-20T23:44:32;100837.72;;;10.52;100.00
33189;BME280;52601;53.070;10.600;2022-10-20T23:47:17;100861.53;;;10.66;100.00
33189;BME280;52601;53.070;10.600;2022-10-20T23:50:03;100881.38;;;10.71;100.00
33189;BME280;52601;53.070;10.600;2022-10-20T23:52:48;100846.84;;;10.43;100.00
33189;BME280;52601;53.070;10.600;2022-10-20T23:55:34;100891.22;;;10.66;100.00
33189;BME280;52601;53.070;10.600;2022-10-20T23:58:20;100883.13;;;10.52;100.00
